Princeville, North Carolina
Current Conditions -  °F | °C
As of 6:35 AM on Tuesday 21 Oct 2014 (Local Time) from KETC Reporting Station
Haze Haze  
Wind Chill: 54°   Ceiling: 11000
Heat Index: 54°   Visibility: 1mi
Dew Point: 53°   Wind: 0mph
Humidity: 95%   Direction: NA
Pressure: 29.93"   Gusts: NA
Location:  35.9133°N, 77.5633°W
Report Text: KETC 211035Z AUTO 00000KT 1SM BR OVC110 12/12 A2993 RMK AO2 VIS 1/2V4 T01240117
Loading
Personal Weather Stations






























Interactive Weather Map
Tropical Storm Tracking
New forecast layout! Learn more

10-Day Weather Forecast

Advertisements
Track Severe Weather on mobile